createdAt,value
2017-10-28T00:01:22.137Z,5.90
2017-10-28T00:04:44.902Z,5.90
2017-10-28T00:08:02.568Z,5.90
2017-10-28T00:11:13.404Z,5.90
2017-10-28T00:14:24.061Z,5.80
2017-10-28T00:17:33.773Z,5.60
2017-10-28T00:20:38.500Z,5.50
2017-10-28T00:23:47.155Z,5.40
2017-10-28T00:26:54.049Z,5.40
2017-10-28T00:29:59.876Z,5.20
2017-10-28T00:33:10.575Z,5.20
2017-10-28T00:36:22.581Z,5.00
2017-10-28T00:43:03.924Z,4.70
2017-10-28T00:46:10.720Z,4.60
2017-10-28T00:49:26.658Z,4.60
2017-10-28T00:52:32.149Z,4.90
2017-10-28T00:55:40.160Z,4.80
2017-10-28T00:58:47.853Z,5.00
2017-10-28T01:02:02.615Z,5.00
2017-10-28T01:05:10.177Z,5.00
2017-10-28T01:08:17.083Z,5.20
2017-10-28T01:11:43.049Z,5.20
2017-10-28T01:15:04.873Z,5.30
2017-10-28T01:18:18.656Z,5.60
2017-10-28T01:21:23.361Z,5.50
2017-10-28T01:24:36.030Z,5.50
2017-10-28T01:27:42.813Z,5.50
2017-10-28T01:30:49.391Z,5.30
2017-10-28T01:33:55.013Z,5.30
2017-10-28T01:37:05.697Z,5.20
2017-10-28T01:40:11.771Z,5.20
2017-10-28T01:43:22.425Z,5.20
2017-10-28T01:46:27.968Z,5.20
2017-10-28T01:49:35.518Z,5.20
2017-10-28T01:52:45.480Z,5.40
2017-10-28T01:55:57.059Z,5.30
2017-10-28T01:59:01.634Z,5.30
2017-10-28T02:02:07.384Z,5.30
2017-10-28T02:05:15.137Z,5.30
2017-10-28T02:08:24.818Z,5.20
2017-10-28T02:11:36.577Z,5.20
2017-10-28T02:14:44.256Z,5.00
2017-10-28T02:17:52.085Z,5.00
2017-10-28T02:21:15.025Z,4.90
2017-10-28T02:24:21.573Z,4.80
2017-10-28T02:27:28.296Z,4.70
2017-10-28T02:30:33.917Z,4.60
2017-10-28T02:33:55.635Z,4.40
2017-10-28T02:37:08.374Z,4.40
2017-10-28T02:40:15.041Z,4.50
2017-10-28T02:43:28.015Z,4.50
2017-10-28T02:46:33.685Z,4.70
2017-10-28T02:49:44.511Z,4.80
2017-10-28T02:52:52.435Z,4.70
2017-10-28T02:55:57.107Z,4.60
2017-10-28T02:59:02.523Z,4.50
2017-10-28T03:02:10.330Z,4.60
2017-10-28T03:05:21.952Z,4.70
2017-10-28T03:08:28.895Z,4.70
2017-10-28T03:11:38.660Z,4.70
2017-10-28T03:14:47.504Z,4.70
2017-10-28T03:17:53.429Z,4.60
2017-10-28T03:20:59.915Z,4.60
2017-10-28T03:24:08.697Z,4.60
2017-10-28T03:27:16.595Z,4.70
2017-10-28T03:30:28.463Z,4.60
2017-10-28T03:33:33.880Z,4.70
2017-10-28T03:36:52.680Z,4.70
2017-10-28T03:40:03.509Z,4.80
2017-10-28T03:43:09.082Z,4.80
2017-10-28T03:46:17.916Z,4.80
2017-10-28T03:49:27.809Z,4.80
2017-10-28T03:52:38.685Z,4.80
2017-10-28T03:55:43.456Z,4.80
2017-10-28T03:58:54.296Z,4.90
2017-10-28T04:02:02.983Z,5.00
2017-10-28T04:05:08.915Z,5.00
2017-10-28T04:08:23.674Z,5.00
2017-10-28T04:11:34.304Z,5.00
2017-10-28T04:14:44.164Z,5.00
2017-10-28T04:17:56.748Z,4.90
2017-10-28T04:21:14.588Z,5.00
2017-10-28T04:24:26.337Z,5.00
2017-10-28T04:27:35.007Z,5.20
2017-10-28T04:30:52.667Z,5.20
2017-10-28T04:34:04.412Z,5.20
2017-10-28T04:37:12.922Z,5.40
2017-10-28T04:40:30.744Z,5.60
2017-10-28T04:43:40.486Z,5.50
2017-10-28T04:46:46.112Z,5.70
2017-10-28T04:49:57.024Z,5.80
2017-10-28T04:53:18.996Z,5.90
2017-10-28T04:56:28.877Z,5.80
2017-10-28T04:59:33.880Z,5.70
2017-10-28T05:02:44.736Z,5.70
2017-10-28T05:05:55.637Z,5.60
2017-10-28T05:09:01.093Z,5.50
2017-10-28T05:12:09.861Z,5.50
2017-10-28T05:15:27.645Z,5.50
2017-10-28T05:18:50.268Z,5.70
2017-10-28T05:21:55.897Z,5.80
2017-10-28T05:25:01.654Z,6.00
2017-10-28T05:28:07.832Z,6.10
2017-10-28T05:31:17.605Z,6.20
2017-10-28T05:34:23.306Z,6.30
2017-10-28T05:37:35.388Z,6.30
2017-10-28T05:40:40.157Z,6.40
2017-10-28T05:43:46.956Z,6.40
2017-10-28T05:46:54.680Z,6.50
2017-10-28T05:50:00.307Z,6.50
2017-10-28T05:53:14.064Z,6.50
2017-10-28T05:56:43.031Z,6.60
2017-10-28T05:59:57.561Z,6.60
2017-10-28T06:03:05.099Z,6.60
2017-10-28T06:06:11.936Z,6.50
2017-10-28T06:09:24.659Z,6.50
2017-10-28T06:12:50.509Z,6.50
2017-10-28T06:16:04.406Z,6.40
2017-10-28T06:19:15.104Z,6.30
2017-10-28T06:22:32.081Z,6.20
2017-10-28T06:25:40.711Z,6.20
2017-10-28T06:28:48.648Z,6.10
2017-10-28T06:31:56.550Z,6.10
2017-10-28T06:35:01.348Z,5.90
2017-10-28T06:38:06.817Z,5.60
2017-10-28T06:41:12.588Z,5.60
2017-10-28T06:44:18.043Z,5.60
2017-10-28T06:47:33.916Z,5.60
2017-10-28T06:50:39.626Z,5.50
2017-10-28T06:53:52.631Z,5.50
2017-10-28T06:57:01.194Z,5.60
2017-10-28T07:00:09.332Z,5.50
2017-10-28T07:03:37.226Z,5.60
2017-10-28T07:06:45.089Z,5.60
2017-10-28T07:09:57.082Z,5.60
2017-10-28T07:13:02.884Z,5.70
2017-10-28T07:16:08.734Z,5.60
2017-10-28T07:19:20.544Z,5.70
2017-10-28T07:22:35.425Z,5.60
2017-10-28T07:25:49.062Z,5.60
2017-10-28T07:28:55.919Z,5.70
2017-10-28T07:32:00.779Z,5.70
2017-10-28T07:35:05.926Z,5.90
2017-10-28T07:38:13.496Z,6.10
2017-10-28T07:41:18.357Z,6.30
2017-10-28T07:44:28.941Z,6.50
2017-10-28T07:47:37.785Z,6.70
2017-10-28T07:50:44.388Z,6.60
2017-10-28T07:53:49.790Z,6.60
2017-10-28T07:57:04.336Z,6.70
2017-10-28T08:00:10.993Z,6.80
2017-10-28T08:03:17.676Z,6.90
2017-10-28T08:06:22.412Z,7.00
2017-10-28T08:09:45.092Z,7.10
2017-10-28T08:12:53.622Z,7.30
2017-10-28T08:16:00.154Z,7.50
2017-10-28T08:19:05.754Z,7.60
2017-10-28T08:22:11.366Z,7.60
2017-10-28T08:25:17.083Z,7.90
2017-10-28T08:28:23.697Z,7.90
2017-10-28T08:31:31.620Z,8.20
2017-10-28T08:34:37.377Z,8.30
2017-10-28T08:37:43.136Z,8.40
2017-10-28T08:40:53.777Z,8.70
2017-10-28T08:44:00.756Z,8.90
2017-10-28T08:47:06.656Z,8.90
2017-10-28T08:50:12.092Z,8.90
2017-10-28T08:53:16.919Z,8.90
2017-10-28T08:56:22.604Z,9.00
2017-10-28T08:59:28.180Z,9.00
2017-10-28T09:02:45.885Z,9.00
2017-10-28T09:05:51.567Z,9.10
2017-10-28T09:08:57.297Z,9.20
2017-10-28T09:12:05.133Z,9.30
2017-10-28T09:15:10.802Z,9.40
2017-10-28T09:18:23.416Z,9.60
2017-10-28T09:21:29.031Z,9.80
2017-10-28T09:24:39.584Z,9.80
2017-10-28T09:27:47.363Z,9.80
2017-10-28T09:31:01.217Z,9.70
2017-10-28T09:34:06.647Z,9.70
2017-10-28T09:37:20.292Z,9.70
2017-10-28T09:40:25.866Z,9.70
2017-10-28T09:43:33.269Z,9.70
2017-10-28T09:46:38.894Z,9.70
2017-10-28T09:49:52.258Z,9.70
2017-10-28T09:52:57.869Z,9.80
2017-10-28T09:56:10.514Z,10.00
2017-10-28T09:59:15.385Z,10.00
2017-10-28T10:02:22.060Z,10.10
2017-10-28T10:05:26.860Z,10.10
2017-10-28T10:08:35.465Z,10.10
2017-10-28T10:11:42.095Z,10.40
2017-10-28T10:14:53.773Z,10.40
2017-10-28T10:17:58.760Z,10.50
2017-10-28T10:21:07.180Z,10.40
2017-10-28T10:24:11.786Z,10.50
2017-10-28T10:27:18.349Z,10.60
2017-10-28T10:30:27.030Z,10.50
2017-10-28T10:33:39.883Z,10.20
2017-10-28T10:36:48.601Z,10.10
2017-10-28T10:39:56.391Z,10.10
2017-10-28T10:43:03.062Z,10.20
2017-10-28T10:46:09.737Z,10.40
2017-10-28T10:49:15.240Z,10.40
2017-10-28T10:52:20.913Z,10.50
2017-10-28T10:55:36.564Z,10.40
2017-10-28T10:58:42.128Z,10.40
2017-10-28T11:01:48.584Z,10.40
2017-10-28T11:04:53.314Z,10.40
2017-10-28T11:08:04.106Z,10.50
2017-10-28T11:11:15.741Z,10.50
2017-10-28T11:14:26.453Z,10.50
2017-10-28T11:17:32.089Z,10.60
2017-10-28T11:20:50.720Z,10.60
2017-10-28T11:23:57.210Z,10.80
2017-10-28T11:27:09.770Z,10.80
2017-10-28T11:30:16.186Z,10.80
2017-10-28T11:33:22.876Z,10.80
2017-10-28T11:36:27.476Z,10.70
2017-10-28T11:39:32.069Z,10.70
2017-10-28T11:42:37.710Z,10.60
2017-10-28T11:45:45.342Z,10.60
2017-10-28T11:48:51.036Z,10.60
2017-10-28T11:51:56.544Z,10.60
2017-10-28T11:55:03.928Z,10.60
2017-10-28T11:58:09.879Z,10.60
2017-10-28T12:01:16.609Z,10.60
2017-10-28T12:04:25.131Z,10.60
2017-10-28T12:07:30.820Z,10.60
2017-10-28T12:10:37.523Z,10.70
2017-10-28T12:13:44.082Z,10.70
2017-10-28T12:16:48.861Z,10.60
2017-10-28T12:19:56.589Z,10.50
2017-10-28T12:23:02.966Z,10.40
2017-10-28T12:26:09.361Z,10.50
2017-10-28T12:29:16.171Z,10.50
2017-10-28T12:32:20.760Z,10.50
2017-10-28T12:35:28.413Z,10.60
2017-10-28T12:38:33.283Z,10.50
2017-10-28T12:41:38.937Z,10.50
2017-10-28T12:44:45.470Z,10.50
2017-10-28T12:47:51.340Z,10.50
2017-10-28T12:50:57.863Z,10.50
2017-10-28T12:54:04.403Z,10.50
2017-10-28T12:57:10.119Z,10.40
2017-10-28T13:00:15.728Z,10.30
2017-10-28T13:03:23.394Z,10.30
2017-10-28T13:06:41.165Z,10.30
2017-10-28T13:09:45.812Z,10.30
2017-10-28T13:12:52.595Z,10.30
2017-10-28T13:15:57.989Z,10.30
2017-10-28T13:19:02.626Z,10.20
2017-10-28T13:22:11.129Z,10.20
2017-10-28T13:25:16.005Z,10.20
2017-10-28T13:28:24.750Z,10.20
2017-10-28T13:31:29.538Z,10.30
2017-10-28T13:34:35.996Z,10.30
2017-10-28T13:37:44.608Z,10.20
2017-10-28T13:40:50.289Z,10.30
2017-10-28T13:43:56.160Z,10.30
2017-10-28T13:47:03.553Z,10.30
2017-10-28T13:50:17.361Z,10.30
2017-10-28T13:53:21.977Z,10.30
2017-10-28T13:56:28.846Z,10.30
2017-10-28T13:59:34.420Z,10.30
2017-10-28T14:02:43.014Z,10.30
2017-10-28T14:05:53.752Z,10.30
2017-10-28T14:09:00.337Z,10.40
2017-10-28T14:12:05.220Z,10.30
2017-10-28T14:15:12.046Z,10.30
2017-10-28T14:18:16.837Z,10.30
2017-10-28T14:21:23.230Z,10.30
2017-10-28T14:24:33.040Z,10.30
2017-10-28T14:27:40.473Z,10.30
2017-10-28T14:30:45.165Z,10.30
2017-10-28T14:33:55.989Z,10.30
2017-10-28T14:37:04.670Z,10.30
2017-10-28T14:40:12.373Z,10.30
2017-10-28T14:43:17.932Z,10.30
2017-10-28T14:46:24.596Z,10.30
2017-10-28T14:49:30.222Z,10.30
2017-10-28T14:52:44.408Z,10.30
2017-10-28T14:55:50.860Z,10.30
2017-10-28T14:59:01.729Z,10.30
2017-10-28T15:02:19.620Z,10.30
2017-10-28T15:09:00.306Z,10.30
2017-10-28T15:12:14.881Z,10.20
2017-10-28T15:15:23.659Z,10.20
2017-10-28T15:18:29.259Z,10.20
2017-10-28T15:21:36.632Z,10.10
2017-10-28T15:24:42.452Z,10.10
2017-10-28T15:27:48.105Z,10.10
2017-10-28T15:30:53.814Z,10.10
2017-10-28T15:34:00.144Z,10.10
2017-10-28T15:37:04.847Z,10.10
2017-10-28T15:40:10.702Z,10.10
2017-10-28T15:43:21.343Z,10.00
2017-10-28T15:46:26.777Z,10.00
2017-10-28T15:49:33.494Z,9.90
2017-10-28T15:52:43.987Z,10.00
2017-10-28T15:55:49.740Z,10.00
2017-10-28T15:59:11.769Z,9.90
2017-10-28T16:02:17.328Z,9.90
2017-10-28T16:05:24.006Z,9.90
2017-10-28T16:08:36.989Z,9.80
2017-10-28T16:11:42.536Z,9.80
2017-10-28T16:14:47.203Z,9.80
2017-10-28T16:17:52.742Z,9.80
2017-10-28T16:20:58.499Z,9.70
2017-10-28T16:24:03.981Z,9.70
2017-10-28T16:27:12.674Z,9.70
2017-10-28T16:30:17.148Z,9.70
2017-10-28T16:33:21.866Z,9.70
2017-10-28T16:36:28.479Z,9.60
2017-10-28T16:39:40.100Z,9.60
2017-10-28T16:42:54.904Z,9.60
2017-10-28T16:46:06.652Z,9.60
2017-10-28T16:49:13.104Z,9.60
2017-10-28T16:52:24.952Z,9.60
2017-10-28T16:55:29.590Z,9.60
2017-10-28T16:58:36.344Z,9.60
2017-10-28T17:01:53.104Z,9.60
2017-10-28T17:04:59.868Z,9.50
2017-10-28T17:08:05.436Z,9.50
2017-10-28T17:11:14.993Z,9.50
2017-10-28T17:14:29.666Z,9.60
2017-10-28T17:17:43.349Z,9.60
2017-10-28T17:20:59.800Z,9.60
2017-10-28T17:24:08.679Z,9.50
2017-10-28T17:27:15.393Z,9.50
2017-10-28T17:30:23.221Z,9.60
2017-10-28T17:33:28.937Z,9.60
2017-10-28T17:36:33.633Z,9.60
2017-10-28T17:39:41.028Z,9.50
2017-10-28T17:42:46.615Z,9.60
2017-10-28T17:45:52.139Z,9.50
2017-10-28T17:48:59.747Z,9.60
2017-10-28T17:52:04.430Z,9.60
2017-10-28T17:55:15.017Z,9.60
2017-10-28T17:58:20.792Z,9.60
2017-10-28T18:01:31.587Z,9.60
2017-10-28T18:04:37.391Z,9.60
2017-10-28T18:07:42.659Z,9.60
2017-10-28T18:10:49.374Z,9.60
2017-10-28T18:13:54.941Z,9.60
2017-10-28T18:17:06.593Z,9.60
2017-10-28T18:20:12.144Z,9.60
2017-10-28T18:23:16.851Z,9.60
2017-10-28T18:26:23.814Z,9.50
2017-10-28T18:29:30.115Z,9.50
2017-10-28T18:32:35.893Z,9.50
2017-10-28T18:35:40.512Z,9.50
2017-10-28T18:38:45.746Z,9.50
2017-10-28T18:41:51.489Z,9.50
2017-10-28T18:44:59.020Z,9.50
2017-10-28T18:48:10.969Z,9.40
2017-10-28T18:51:16.664Z,9.50
2017-10-28T18:54:22.260Z,9.40
2017-10-28T18:57:27.866Z,9.40
2017-10-28T19:00:32.722Z,9.40
2017-10-28T19:03:38.150Z,9.40
2017-10-28T19:06:46.731Z,9.40
2017-10-28T19:09:53.581Z,9.40
2017-10-28T19:12:59.695Z,9.40
2017-10-28T19:16:04.437Z,9.40
2017-10-28T19:19:11.823Z,9.40
2017-10-28T19:22:19.399Z,9.40
2017-10-28T19:25:27.765Z,9.40
2017-10-28T19:28:33.290Z,9.40
2017-10-28T19:31:38.889Z,9.40
2017-10-28T19:34:50.980Z,9.50
2017-10-28T19:37:55.497Z,9.50
2017-10-28T19:41:00.901Z,9.50
2017-10-28T19:44:06.872Z,9.50
2017-10-28T19:47:13.307Z,9.40
2017-10-28T19:50:18.882Z,9.50
2017-10-28T19:53:23.646Z,9.50
2017-10-28T19:56:34.475Z,9.50
2017-10-28T19:59:45.274Z,9.50
2017-10-28T20:02:49.941Z,9.50
2017-10-28T20:05:54.624Z,9.60
2017-10-28T20:08:59.276Z,9.50
2017-10-28T20:12:04.107Z,9.50
2017-10-28T20:15:11.044Z,9.50
2017-10-28T20:18:15.920Z,9.50
2017-10-28T20:21:20.889Z,9.60
2017-10-28T20:24:30.544Z,9.50
2017-10-28T20:27:37.240Z,9.60
2017-10-28T20:30:56.166Z,9.60
2017-10-28T20:34:02.928Z,9.50
2017-10-28T20:37:13.754Z,9.60
2017-10-28T20:40:22.444Z,9.50
2017-10-28T20:43:34.404Z,9.60
2017-10-28T20:46:44.227Z,9.60
2017-10-28T20:49:52.080Z,9.60
2017-10-28T20:53:02.872Z,9.60
2017-10-28T20:56:09.860Z,9.60
2017-10-28T20:59:14.602Z,9.60
2017-10-28T21:02:22.211Z,9.60
2017-10-28T21:05:33.849Z,9.60
2017-10-28T21:08:50.477Z,9.60
2017-10-28T21:12:03.515Z,9.60
2017-10-28T21:15:10.252Z,9.60
2017-10-28T21:18:25.897Z,9.50
2017-10-28T21:21:31.528Z,9.60
2017-10-28T21:24:37.101Z,9.60
2017-10-28T21:27:50.097Z,9.60
2017-10-28T21:30:58.835Z,9.60
2017-10-28T21:36:52.712Z,9.60
2017-10-28T21:39:59.416Z,9.60
2017-10-28T21:43:10.292Z,9.60
2017-10-28T21:46:15.944Z,9.50
2017-10-28T21:49:21.152Z,9.50
2017-10-28T21:52:28.634Z,9.50
2017-10-28T21:55:37.436Z,9.50
2017-10-28T21:58:48.152Z,9.60
2017-10-28T22:01:54.865Z,9.60
2017-10-28T22:05:02.654Z,9.50
2017-10-28T22:08:08.238Z,9.50
2017-10-28T22:11:26.993Z,9.50
2017-10-28T22:14:33.603Z,9.40
2017-10-28T22:17:39.291Z,9.40
2017-10-28T22:20:45.025Z,9.40
2017-10-28T22:23:58.777Z,9.40
2017-10-28T22:27:15.407Z,9.40
2017-10-28T22:30:20.384Z,9.30
2017-10-28T22:37:13.828Z,9.30
2017-10-28T22:40:19.344Z,9.30
2017-10-28T22:43:26.980Z,9.30
2017-10-28T22:46:34.506Z,9.30
2017-10-28T22:49:46.165Z,9.30
2017-10-28T22:52:52.841Z,9.20
2017-10-28T22:55:59.416Z,9.30
2017-10-28T22:59:04.251Z,9.20
2017-10-28T23:02:14.281Z,9.20
2017-10-28T23:05:21.005Z,9.30
2017-10-28T23:08:30.791Z,9.30
2017-10-28T23:11:38.493Z,9.30
2017-10-28T23:14:45.062Z,9.30
2017-10-28T23:17:59.972Z,9.30
2017-10-28T23:21:11.875Z,9.30
2017-10-28T23:24:22.653Z,9.30
2017-10-28T23:27:27.639Z,9.20
2017-10-28T23:30:32.217Z,9.30
2017-10-28T23:33:39.155Z,9.20
2017-10-28T23:36:52.956Z,9.30
2017-10-28T23:39:57.816Z,9.30
2017-10-28T23:43:08.942Z,9.30
2017-10-28T23:46:22.715Z,9.30
2017-10-28T23:49:27.533Z,9.30
2017-10-28T23:52:39.641Z,9.30
2017-10-28T23:55:50.262Z,9.30
2017-10-28T23:58:55.933Z,9.30
